sensor_id;sensor_type;location;lat;lon;timestamp;pressure;altitude;pressure_sealevel;temperature;humidity
53647;BME280;39550;52.230;5.194;2022-07-12T00:00:34;102315.34;;;19.53;65.62
53647;BME280;39550;52.230;5.194;2022-07-12T00:02:59;102321.47;;;19.52;65.59
53647;BME280;39550;52.230;5.194;2022-07-12T00:05:24;102330.19;;;19.52;65.55
53647;BME280;39550;52.230;5.194;2022-07-12T00:07:50;102336.28;;;19.51;65.51
53647;BME280;39550;52.230;5.194;2022-07-12T00:10:15;102323.22;;;19.50;65.67
53647;BME280;39550;52.230;5.194;2022-07-12T00:12:41;102313.69;;;19.43;65.47
53647;BME280;39550;52.230;5.194;2022-07-12T00:15:07;102335.41;;;19.49;65.59
53647;BME280;39550;52.230;5.194;2022-07-12T00:17:32;102322.34;;;19.48;65.52
53647;BME280;39550;52.230;5.194;2022-07-12T00:19:57;102331.97;;;19.47;65.54
53647;BME280;39550;52.230;5.194;2022-07-12T00:22:23;102330.22;;;19.46;65.44
53647;BME280;39550;52.230;5.194;2022-07-12T00:24:48;102338.94;;;19.47;65.47
53647;BME280;39550;52.230;5.194;2022-07-12T00:27:14;102333.69;;;19.45;65.57
53647;BME280;39550;52.230;5.194;2022-07-12T00:29:39;102321.53;;;19.38;65.50
53647;BME280;39550;52.230;5.194;2022-07-12T00:32:05;102331.09;;;19.42;65.52
53647;BME280;39550;52.230;5.194;2022-07-12T00:34:30;102333.72;;;19.40;65.35
53647;BME280;39550;52.230;5.194;2022-07-12T00:36:55;102333.75;;;19.37;65.43
53647;BME280;39550;52.230;5.194;2022-07-12T00:39:21;102331.13;;;19.40;65.55
53647;BME280;39550;52.230;5.194;2022-07-12T00:41:50;102339.81;;;19.39;65.49
53647;BME280;39550;52.230;5.194;2022-07-12T00:44:15;102343.34;;;19.38;65.40
53647;BME280;39550;52.230;5.194;2022-07-12T00:46:40;102345.06;;;19.38;65.41
53647;BME280;39550;52.230;5.194;2022-07-12T00:49:06;102340.72;;;19.35;65.41
53647;BME280;39550;52.230;5.194;2022-07-12T00:51:32;102348.56;;;19.35;65.76
53647;BME280;39550;52.230;5.194;2022-07-12T00:53:58;102343.34;;;19.32;65.49
53647;BME280;39550;52.230;5.194;2022-07-12T00:56:25;102348.56;;;19.34;65.45
53647;BME280;39550;52.230;5.194;2022-07-12T00:58:50;102347.72;;;19.33;65.67
53647;BME280;39550;52.230;5.194;2022-07-12T01:01:16;102347.72;;;19.32;65.46
53647;BME280;39550;52.230;5.194;2022-07-12T01:03:41;102345.13;;;19.30;65.59
53647;BME280;39550;52.230;5.194;2022-07-12T01:06:07;102350.34;;;19.30;65.68
53647;BME280;39550;52.230;5.194;2022-07-12T01:08:33;102348.59;;;19.29;65.35
53647;BME280;39550;52.230;5.194;2022-07-12T01:10:59;102345.09;;;19.27;65.43
53647;BME280;39550;52.230;5.194;2022-07-12T01:13:25;102348.59;;;19.28;65.40
53647;BME280;39550;52.230;5.194;2022-07-12T01:15:51;102345.09;;;19.27;65.39
53647;BME280;39550;52.230;5.194;2022-07-12T01:18:18;102341.66;;;19.19;65.38
53647;BME280;39550;52.230;5.194;2022-07-12T01:20:44;102352.09;;;19.25;65.66
53647;BME280;39550;52.230;5.194;2022-07-12T01:23:11;102350.34;;;19.24;65.89
53647;BME280;39550;52.230;5.194;2022-07-12T01:25:37;102350.38;;;19.22;65.54
53647;BME280;39550;52.230;5.194;2022-07-12T01:28:03;102352.13;;;19.22;65.17
53647;BME280;39550;52.230;5.194;2022-07-12T01:30:28;102350.38;;;19.21;65.49
53647;BME280;39550;52.230;5.194;2022-07-12T01:32:54;102333.00;;;19.11;65.32
53647;BME280;39550;52.230;5.194;2022-07-12T01:35:21;102357.34;;;19.19;65.69
53647;BME280;39550;52.230;5.194;2022-07-12T01:37:46;102349.53;;;19.16;65.43
53647;BME280;39550;52.230;5.194;2022-07-12T01:40:14;102336.47;;;19.13;65.61
53647;BME280;39550;52.230;5.194;2022-07-12T01:42:40;102329.47;;;19.15;65.44
53647;BME280;39550;52.230;5.194;2022-07-12T01:45:07;102338.22;;;19.14;65.50
53647;BME280;39550;52.230;5.194;2022-07-12T01:47:33;102335.59;;;19.14;65.05
53647;BME280;39550;52.230;5.194;2022-07-12T01:50:00;102336.47;;;19.13;65.60
53647;BME280;39550;52.230;5.194;2022-07-12T01:52:26;102327.78;;;19.11;65.24
53647;BME280;39550;52.230;5.194;2022-07-12T01:54:53;102333.00;;;19.08;65.42
53647;BME280;39550;52.230;5.194;2022-07-12T01:57:19;102331.25;;;19.10;65.01
53647;BME280;39550;52.230;5.194;2022-07-12T01:59:45;102333.00;;;19.08;65.61
53647;BME280;39550;52.230;5.194;2022-07-12T02:02:10;102329.53;;;19.07;65.24
53647;BME280;39550;52.230;5.194;2022-07-12T02:04:36;102325.16;;;19.06;65.04
53647;BME280;39550;52.230;5.194;2022-07-12T02:07:03;102325.19;;;19.04;64.83
53647;BME280;39550;52.230;5.194;2022-07-12T02:09:28;102331.28;;;19.03;65.21
53647;BME280;39550;52.230;5.194;2022-07-12T02:11:54;102329.56;;;19.02;64.84
53647;BME280;39550;52.230;5.194;2022-07-12T02:14:19;102332.16;;;19.01;65.08
53647;BME280;39550;52.230;5.194;2022-07-12T02:16:45;102325.22;;;19.00;65.08
53647;BME280;39550;52.230;5.194;2022-07-12T02:19:11;102333.91;;;18.99;64.95
53647;BME280;39550;52.230;5.194;2022-07-12T02:21:37;102331.31;;;18.97;64.87
53647;BME280;39550;52.230;5.194;2022-07-12T02:24:04;102334.78;;;18.96;64.89
53647;BME280;39550;52.230;5.194;2022-07-12T02:26:29;102339.16;;;18.96;64.92
53647;BME280;39550;52.230;5.194;2022-07-12T02:28:55;102331.31;;;18.94;65.18
53647;BME280;39550;52.230;5.194;2022-07-12T02:31:20;102336.56;;;18.94;65.15
53647;BME280;39550;52.230;5.194;2022-07-12T02:33:45;102320.88;;;18.88;65.23
53647;BME280;39550;52.230;5.194;2022-07-12T02:36:11;102327.84;;;18.89;65.10
53647;BME280;39550;52.230;5.194;2022-07-12T02:38:36;102326.09;;;18.89;64.91
53647;BME280;39550;52.230;5.194;2022-07-12T02:41:01;102333.06;;;18.89;65.28
53647;BME280;39550;52.230;5.194;2022-07-12T02:43:29;102327.00;;;18.88;65.31
53647;BME280;39550;52.230;5.194;2022-07-12T02:46:05;102322.63;;;18.87;65.32
53647;BME280;39550;52.230;5.194;2022-07-12T02:48:31;102326.94;;;18.87;65.13
53647;BME280;39550;52.230;5.194;2022-07-12T02:50:56;102323.47;;;18.86;65.33
53647;BME280;39550;52.230;5.194;2022-07-12T02:53:21;102326.09;;;18.85;65.03
53647;BME280;39550;52.230;5.194;2022-07-12T02:55:47;102321.72;;;18.84;65.40
53647;BME280;39550;52.230;5.194;2022-07-12T02:58:13;102322.59;;;18.83;64.96
53647;BME280;39550;52.230;5.194;2022-07-12T03:00:38;102330.44;;;18.81;65.35
53647;BME280;39550;52.230;5.194;2022-07-12T03:03:04;102333.94;;;18.82;65.17
53647;BME280;39550;52.230;5.194;2022-07-12T03:05:33;102323.50;;;18.74;65.03
53647;BME280;39550;52.230;5.194;2022-07-12T03:07:58;102336.53;;;18.79;64.99
53647;BME280;39550;52.230;5.194;2022-07-12T03:10:23;102326.97;;;18.78;65.12
53647;BME280;39550;52.230;5.194;2022-07-12T03:12:48;102333.94;;;18.77;64.91
53647;BME280;39550;52.230;5.194;2022-07-12T03:15:14;102334.81;;;18.75;64.80
53647;BME280;39550;52.230;5.194;2022-07-12T03:17:39;102332.19;;;18.73;64.85
53647;BME280;39550;52.230;5.194;2022-07-12T03:20:05;102341.78;;;18.72;65.30
53647;BME280;39550;52.230;5.194;2022-07-12T03:22:36;102347.00;;;18.72;65.20
53647;BME280;39550;52.230;5.194;2022-07-12T03:25:02;102339.19;;;18.71;65.11
53647;BME280;39550;52.230;5.194;2022-07-12T03:27:27;102343.50;;;18.70;64.99
53647;BME280;39550;52.230;5.194;2022-07-12T03:29:53;102339.19;;;18.68;65.35
53647;BME280;39550;52.230;5.194;2022-07-12T03:32:18;102340.06;;;18.68;65.39
53647;BME280;39550;52.230;5.194;2022-07-12T03:34:44;102326.13;;;18.60;64.98
53647;BME280;39550;52.230;5.194;2022-07-12T03:37:09;102336.59;;;18.66;64.70
53647;BME280;39550;52.230;5.194;2022-07-12T03:39:34;102332.22;;;18.65;65.48
53647;BME280;39550;52.230;5.194;2022-07-12T03:42:00;102344.41;;;18.65;65.07
53647;BME280;39550;52.230;5.194;2022-07-12T03:44:25;102336.56;;;18.63;64.91
53647;BME280;39550;52.230;5.194;2022-07-12T03:46:50;102336.56;;;18.63;65.05
53647;BME280;39550;52.230;5.194;2022-07-12T03:49:16;102345.31;;;18.62;65.37
53647;BME280;39550;52.230;5.194;2022-07-12T03:51:41;102332.25;;;18.56;65.16
53647;BME280;39550;52.230;5.194;2022-07-12T03:54:06;102341.81;;;18.60;65.19
53647;BME280;39550;52.230;5.194;2022-07-12T03:56:35;102343.56;;;18.58;65.72
53647;BME280;39550;52.230;5.194;2022-07-12T03:59:19;102340.97;;;18.58;65.18
53647;BME280;39550;52.230;5.194;2022-07-12T04:01:45;102340.06;;;18.56;64.98
53647;BME280;39550;52.230;5.194;2022-07-12T04:04:10;102340.94;;;18.57;65.23
53647;BME280;39550;52.230;5.194;2022-07-12T04:06:35;102340.06;;;18.54;65.17
53647;BME280;39550;52.230;5.194;2022-07-12T04:09:01;102333.09;;;18.55;65.15
53647;BME280;39550;52.230;5.194;2022-07-12T04:11:27;102336.59;;;18.54;65.19
53647;BME280;39550;52.230;5.194;2022-07-12T04:13:52;102333.97;;;18.52;64.63
53647;BME280;39550;52.230;5.194;2022-07-12T04:16:18;102337.47;;;18.53;64.53
53647;BME280;39550;52.230;5.194;2022-07-12T04:18:43;102337.47;;;18.51;64.76
53647;BME280;39550;52.230;5.194;2022-07-12T04:21:08;102341.81;;;18.51;64.76
53647;BME280;39550;52.230;5.194;2022-07-12T04:23:33;102341.81;;;18.51;65.11
53647;BME280;39550;52.230;5.194;2022-07-12T04:25:59;102334.88;;;18.50;64.55
53647;BME280;39550;52.230;5.194;2022-07-12T04:28:24;102331.41;;;18.42;64.91
53647;BME280;39550;52.230;5.194;2022-07-12T04:30:49;102334.00;;;18.45;65.03
53647;BME280;39550;52.230;5.194;2022-07-12T04:33:15;102345.28;;;18.47;64.68
53647;BME280;39550;52.230;5.194;2022-07-12T04:35:40;102346.19;;;18.46;64.54
53647;BME280;39550;52.230;5.194;2022-07-12T04:38:07;102352.28;;;18.45;64.75
53647;BME280;39550;52.230;5.194;2022-07-12T04:40:33;102353.13;;;18.44;64.75
53647;BME280;39550;52.230;5.194;2022-07-12T04:42:58;102360.97;;;18.44;65.04
53647;BME280;39550;52.230;5.194;2022-07-12T04:45:23;102354.00;;;18.43;64.51
53647;BME280;39550;52.230;5.194;2022-07-12T04:47:48;102344.44;;;18.42;65.04
53647;BME280;39550;52.230;5.194;2022-07-12T04:50:14;102353.16;;;18.41;64.78
53647;BME280;39550;52.230;5.194;2022-07-12T04:52:39;102350.53;;;18.41;65.11
53647;BME280;39550;52.230;5.194;2022-07-12T04:55:05;102327.03;;;18.30;64.80
53647;BME280;39550;52.230;5.194;2022-07-12T04:57:31;102347.03;;;18.38;64.85
53647;BME280;39550;52.230;5.194;2022-07-12T04:59:56;102336.59;;;18.35;64.89
53647;BME280;39550;52.230;5.194;2022-07-12T05:02:21;102348.78;;;18.38;64.76
53647;BME280;39550;52.230;5.194;2022-07-12T05:04:47;102347.03;;;18.38;64.96
53647;BME280;39550;52.230;5.194;2022-07-12T05:07:12;102347.91;;;18.44;64.72
53647;BME280;39550;52.230;5.194;2022-07-12T05:09:37;102361.84;;;18.58;64.57
53647;BME280;39550;52.230;5.194;2022-07-12T05:12:03;102367.91;;;18.69;64.59
53647;BME280;39550;52.230;5.194;2022-07-12T05:14:28;102374.84;;;18.70;64.64
53647;BME280;39550;52.230;5.194;2022-07-12T05:16:54;102375.75;;;18.66;64.11
53647;BME280;39550;52.230;5.194;2022-07-12T05:19:19;102384.47;;;18.62;64.71
53647;BME280;39550;52.230;5.194;2022-07-12T05:21:45;102380.09;;;18.57;64.65
53647;BME280;39550;52.230;5.194;2022-07-12T05:24:10;102369.66;;;18.49;64.61
53647;BME280;39550;52.230;5.194;2022-07-12T05:26:35;102380.97;;;18.49;65.17
53647;BME280;39550;52.230;5.194;2022-07-12T05:29:02;102372.28;;;18.41;65.10
53647;BME280;39550;52.230;5.194;2022-07-12T05:31:27;102385.31;;;18.43;65.41
53647;BME280;39550;52.230;5.194;2022-07-12T05:33:53;102374.88;;;18.43;64.93
53647;BME280;39550;52.230;5.194;2022-07-12T05:36:18;102380.09;;;18.43;65.02
53647;BME280;39550;52.230;5.194;2022-07-12T05:38:44;102388.81;;;18.43;65.10
53647;BME280;39550;52.230;5.194;2022-07-12T05:41:09;102381.88;;;18.37;65.15
53647;BME280;39550;52.230;5.194;2022-07-12T05:43:35;102378.38;;;18.45;65.12
53647;BME280;39550;52.230;5.194;2022-07-12T05:46:00;102383.59;;;18.45;65.46
53647;BME280;39550;52.230;5.194;2022-07-12T05:48:25;102392.28;;;18.44;64.90
53647;BME280;39550;52.230;5.194;2022-07-12T05:50:51;102388.81;;;18.45;65.00
53647;BME280;39550;52.230;5.194;2022-07-12T05:53:17;102387.97;;;18.44;65.02
53647;BME280;39550;52.230;5.194;2022-07-12T05:55:52;102373.16;;;18.37;65.05
53647;BME280;39550;52.230;5.194;2022-07-12T05:58:19;102381.00;;;18.43;65.23
53647;BME280;39550;52.230;5.194;2022-07-12T06:00:45;102377.50;;;18.44;65.53
53647;BME280;39550;52.230;5.194;2022-07-12T06:03:12;102381.00;;;18.42;65.88
53647;BME280;39550;52.230;5.194;2022-07-12T06:05:38;102382.72;;;18.41;67.62
53647;BME280;39550;52.230;5.194;2022-07-12T06:08:03;102381.84;;;18.41;67.44
53647;BME280;39550;52.230;5.194;2022-07-12T06:10:29;102381.88;;;18.37;69.11
53647;BME280;39550;52.230;5.194;2022-07-12T06:12:54;102380.13;;;18.36;69.26
53647;BME280;39550;52.230;5.194;2022-07-12T06:15:19;102377.50;;;18.36;69.55
53647;BME280;39550;52.230;5.194;2022-07-12T06:17:45;102380.13;;;18.36;69.11
53647;BME280;39550;52.230;5.194;2022-07-12T06:20:10;102381.84;;;18.41;69.77
53647;BME280;39550;52.230;5.194;2022-07-12T06:22:36;102382.72;;;18.40;69.64
53647;BME280;39550;52.230;5.194;2022-07-12T06:25:01;102376.63;;;18.41;69.20
53647;BME280;39550;52.230;5.194;2022-07-12T06:27:27;102381.84;;;18.47;70.31
53647;BME280;39550;52.230;5.194;2022-07-12T06:29:52;102378.38;;;18.42;70.79
53647;BME280;39550;52.230;5.194;2022-07-12T06:32:18;102381.00;;;18.43;70.48
53647;BME280;39550;52.230;5.194;2022-07-12T06:34:43;102371.41;;;18.34;69.86
53647;BME280;39550;52.230;5.194;2022-07-12T06:37:09;102383.59;;;18.45;70.63
53647;BME280;39550;52.230;5.194;2022-07-12T06:39:35;102374.03;;;18.36;68.81
53647;BME280;39550;52.230;5.194;2022-07-12T06:42:01;102368.78;;;18.31;69.36
53647;BME280;39550;52.230;5.194;2022-07-12T06:44:32;102394.91;;;18.45;69.77
53647;BME280;39550;52.230;5.194;2022-07-12T06:46:58;102391.44;;;18.45;69.74
53647;BME280;39550;52.230;5.194;2022-07-12T06:49:24;102392.28;;;18.44;70.78
53647;BME280;39550;52.230;5.194;2022-07-12T06:51:49;102396.66;;;18.45;69.88
53647;BME280;39550;52.230;5.194;2022-07-12T06:54:15;102397.50;;;18.44;69.18
53647;BME280;39550;52.230;5.194;2022-07-12T06:56:40;102399.25;;;18.45;70.12
53647;BME280;39550;52.230;5.194;2022-07-12T06:59:06;102405.34;;;18.44;70.02
53647;BME280;39550;52.230;5.194;2022-07-12T07:01:31;102402.72;;;18.44;69.91
53647;BME280;39550;52.230;5.194;2022-07-12T07:03:57;102402.72;;;18.44;70.13
53647;BME280;39550;52.230;5.194;2022-07-12T07:06:22;102401.00;;;18.44;69.79
53647;BME280;39550;52.230;5.194;2022-07-12T07:08:47;102399.25;;;18.45;69.77
53647;BME280;39550;52.230;5.194;2022-07-12T07:11:13;102401.00;;;18.49;69.45
53647;BME280;39550;52.230;5.194;2022-07-12T07:13:38;102396.63;;;18.49;69.95
53647;BME280;39550;52.230;5.194;2022-07-12T07:16:05;102385.34;;;18.46;69.38
53647;BME280;39550;52.230;5.194;2022-07-12T07:18:30;102398.38;;;18.55;69.75
53647;BME280;39550;52.230;5.194;2022-07-12T07:20:55;102396.63;;;18.59;69.68
53647;BME280;39550;52.230;5.194;2022-07-12T07:23:21;102380.09;;;18.61;69.68
53647;BME280;39550;52.230;5.194;2022-07-12T07:25:46;102384.44;;;18.61;69.61
53647;BME280;39550;52.230;5.194;2022-07-12T07:28:12;102376.63;;;18.65;69.57
53647;BME280;39550;52.230;5.194;2022-07-12T07:30:37;102383.59;;;18.69;69.59
53647;BME280;39550;52.230;5.194;2022-07-12T07:33:19;102384.44;;;18.78;69.74
53647;BME280;39550;52.230;5.194;2022-07-12T07:35:45;102383.53;;;18.79;69.22
53647;BME280;39550;52.230;5.194;2022-07-12T07:38:10;102370.53;;;18.71;69.55
53647;BME280;39550;52.230;5.194;2022-07-12T07:40:36;102379.22;;;18.78;68.84
53647;BME280;39550;52.230;5.194;2022-07-12T07:43:01;102375.72;;;18.77;69.45
53647;BME280;39550;52.230;5.194;2022-07-12T07:45:26;102386.16;;;18.77;69.16
53647;BME280;39550;52.230;5.194;2022-07-12T07:47:52;102376.59;;;18.76;69.10
53647;BME280;39550;52.230;5.194;2022-07-12T07:50:17;102384.41;;;18.75;69.48
53647;BME280;39550;52.230;5.194;2022-07-12T07:52:42;102384.41;;;18.75;69.22
53647;BME280;39550;52.230;5.194;2022-07-12T07:55:08;102381.81;;;18.75;69.35
53647;BME280;39550;52.230;5.194;2022-07-12T07:57:33;102372.25;;;18.69;69.04
53647;BME280;39550;52.230;5.194;2022-07-12T07:59:59;102383.56;;;18.72;68.88
53647;BME280;39550;52.230;5.194;2022-07-12T08:02:24;102391.41;;;18.74;69.04
53647;BME280;39550;52.230;5.194;2022-07-12T08:04:49;102380.09;;;18.74;68.56
53647;BME280;39550;52.230;5.194;2022-07-12T08:07:15;102381.81;;;18.73;68.77
53647;BME280;39550;52.230;5.194;2022-07-12T08:09:41;102387.03;;;18.75;68.47
53647;BME280;39550;52.230;5.194;2022-07-12T08:12:07;102394.88;;;18.75;68.28
53647;BME280;39550;52.230;5.194;2022-07-12T08:14:32;102394.00;;;18.76;68.42
53647;BME280;39550;52.230;5.194;2022-07-12T08:16:57;102388.78;;;18.76;68.23
53647;BME280;39550;52.230;5.194;2022-07-12T08:19:23;102392.28;;;18.78;68.18
53647;BME280;39550;52.230;5.194;2022-07-12T08:21:48;102390.53;;;18.77;67.97
53647;BME280;39550;52.230;5.194;2022-07-12T08:24:13;102395.75;;;18.78;68.30
53647;BME280;39550;52.230;5.194;2022-07-12T08:26:39;102406.19;;;18.80;67.80
53647;BME280;39550;52.230;5.194;2022-07-12T08:29:05;102398.34;;;18.80;67.74
53647;BME280;39550;52.230;5.194;2022-07-12T08:31:30;102395.72;;;18.80;67.86
53647;BME280;39550;52.230;5.194;2022-07-12T08:33:55;102394.00;;;18.89;67.41
53647;BME280;39550;52.230;5.194;2022-07-12T08:36:21;102392.28;;;18.93;67.23
53647;BME280;39550;52.230;5.194;2022-07-12T08:38:46;102394.88;;;18.96;67.34
53647;BME280;39550;52.230;5.194;2022-07-12T08:41:13;102396.63;;;18.96;67.54
53647;BME280;39550;52.230;5.194;2022-07-12T08:43:42;102392.25;;;18.96;67.52
53647;BME280;39550;52.230;5.194;2022-07-12T08:46:12;102392.25;;;18.96;67.51
53647;BME280;39550;52.230;5.194;2022-07-12T08:48:39;102385.31;;;18.98;67.39
53647;BME280;39550;52.230;5.194;2022-07-12T08:51:09;102387.91;;;19.00;67.55
53647;BME280;39550;52.230;5.194;2022-07-12T08:53:35;102378.25;;;19.23;67.83
53647;BME280;39550;52.230;5.194;2022-07-12T08:56:02;102374.66;;;19.51;66.78
53647;BME280;39550;52.230;5.194;2022-07-12T08:58:27;102367.56;;;19.68;65.67
53647;BME280;39550;52.230;5.194;2022-07-12T09:00:53;102363.19;;;19.73;65.78
53647;BME280;39550;52.230;5.194;2022-07-12T09:03:19;102365.78;;;19.77;65.06
53647;BME280;39550;52.230;5.194;2022-07-12T09:05:55;102365.81;;;19.70;64.96
53647;BME280;39550;52.230;5.194;2022-07-12T09:08:31;102365.81;;;19.67;65.27
53647;BME280;39550;52.230;5.194;2022-07-12T09:11:02;102375.44;;;19.59;65.70
53647;BME280;39550;52.230;5.194;2022-07-12T09:13:51;102373.75;;;19.53;65.75
53647;BME280;39550;52.230;5.194;2022-07-12T09:16:21;102385.97;;;19.51;65.77
53647;BME280;39550;52.230;5.194;2022-07-12T09:18:47;102383.38;;;19.50;65.80
53647;BME280;39550;52.230;5.194;2022-07-12T09:21:26;102378.13;;;19.50;65.95
53647;BME280;39550;52.230;5.194;2022-07-12T09:23:57;102380.75;;;19.50;65.99
53647;BME280;39550;52.230;5.194;2022-07-12T09:26:30;102380.75;;;19.50;65.92
53647;BME280;39550;52.230;5.194;2022-07-12T09:29:05;102367.69;;;19.47;66.17
53647;BME280;39550;52.230;5.194;2022-07-12T09:31:50;102382.47;;;19.49;66.37
53647;BME280;39550;52.230;5.194;2022-07-12T09:34:35;102374.66;;;19.51;66.00
53647;BME280;39550;52.230;5.194;2022-07-12T09:37:19;102387.72;;;19.52;66.03
53647;BME280;39550;52.230;5.194;2022-07-12T09:39:45;102369.44;;;19.51;65.59
53647;BME280;39550;52.230;5.194;2022-07-12T09:42:11;102371.16;;;19.55;65.92
53647;BME280;39550;52.230;5.194;2022-07-12T09:44:37;102367.63;;;19.56;65.79
53647;BME280;39550;52.230;5.194;2022-07-12T09:47:03;102362.38;;;19.59;65.82
53647;BME280;39550;52.230;5.194;2022-07-12T09:49:28;102355.44;;;19.56;65.66
53647;BME280;39550;52.230;5.194;2022-07-12T09:51:56;102348.47;;;19.54;65.60
53647;BME280;39550;52.230;5.194;2022-07-12T09:54:25;102364.94;;;19.68;65.70
53647;BME280;39550;52.230;5.194;2022-07-12T09:56:53;102365.81;;;19.67;65.85
53647;BME280;39550;52.230;5.194;2022-07-12T09:59:23;102376.25;;;19.73;65.84
53647;BME280;39550;52.230;5.194;2022-07-12T10:01:49;102380.63;;;19.74;65.77
53647;BME280;39550;52.230;5.194;2022-07-12T10:04:19;102371.88;;;19.76;65.53
53647;BME280;39550;52.230;5.194;2022-07-12T10:06:45;102361.41;;;19.79;65.63
53647;BME280;39550;52.230;5.194;2022-07-12T10:09:12;102365.75;;;19.81;65.77
53647;BME280;39550;52.230;5.194;2022-07-12T10:11:39;102371.03;;;19.83;65.41
53647;BME280;39550;52.230;5.194;2022-07-12T10:14:05;102375.34;;;19.85;65.58
53647;BME280;39550;52.230;5.194;2022-07-12T10:16:34;102371.03;;;19.83;65.54
53647;BME280;39550;52.230;5.194;2022-07-12T10:21:52;102376.19;;;19.89;65.53
53647;BME280;39550;52.230;5.194;2022-07-12T10:26:55;102387.50;;;19.96;65.43
53647;BME280;39550;52.230;5.194;2022-07-12T10:29:21;102387.47;;;19.97;65.27
53647;BME280;39550;52.230;5.194;2022-07-12T10:31:46;102374.44;;;19.94;65.00
53647;BME280;39550;52.230;5.194;2022-07-12T10:39:27;102381.31;;;20.04;65.05
53647;BME280;39550;52.230;5.194;2022-07-12T10:44:44;102382.19;;;20.06;65.01
53647;BME280;39550;52.230;5.194;2022-07-12T10:47:11;102381.31;;;20.09;65.27
53647;BME280;39550;52.230;5.194;2022-07-12T10:49:48;102378.69;;;20.11;65.11
53647;BME280;39550;52.230;5.194;2022-07-12T10:52:22;102376.91;;;20.13;65.14
53647;BME280;39550;52.230;5.194;2022-07-12T10:57:42;102383.00;;;20.16;64.83
53647;BME280;39550;52.230;5.194;2022-07-12T11:00:12;102386.50;;;20.14;65.10
53647;BME280;39550;52.230;5.194;2022-07-12T11:02:38;102381.22;;;20.17;65.13
53647;BME280;39550;52.230;5.194;2022-07-12T11:05:04;102380.38;;;20.16;65.35
53647;BME280;39550;52.230;5.194;2022-07-12T11:07:30;102375.09;;;20.19;65.38
53647;BME280;39550;52.230;5.194;2022-07-12T11:09:56;102380.31;;;20.21;65.06
53647;BME280;39550;52.230;5.194;2022-07-12T11:12:28;102383.81;;;20.23;65.01
53647;BME280;39550;52.230;5.194;2022-07-12T11:14:54;102379.41;;;20.25;65.15
53647;BME280;39550;52.230;5.194;2022-07-12T11:17:25;102371.59;;;20.23;64.95
53647;BME280;39550;52.230;5.194;2022-07-12T11:20:05;102375.06;;;20.27;65.32
53647;BME280;39550;52.230;5.194;2022-07-12T11:22:32;102375.03;;;20.30;65.18
53647;BME280;39550;52.230;5.194;2022-07-12T11:24:58;102373.25;;;20.31;65.36
53647;BME280;39550;52.230;5.194;2022-07-12T11:27:26;102369.75;;;20.33;65.28
53647;BME280;39550;52.230;5.194;2022-07-12T11:30:03;102364.50;;;20.35;65.24
53647;BME280;39550;52.230;5.194;2022-07-12T11:32:42;102374.94;;;20.41;65.54
53647;BME280;39550;52.230;5.194;2022-07-12T11:35:24;102370.56;;;20.41;65.12
53647;BME280;39550;52.230;5.194;2022-07-12T11:37:56;102368.78;;;20.45;64.99
53647;BME280;39550;52.230;5.194;2022-07-12T11:40:27;102366.09;;;20.51;65.51
53647;BME280;39550;52.230;5.194;2022-07-12T11:42:53;102363.28;;;20.76;63.64
53647;BME280;39550;52.230;5.194;2022-07-12T11:45:19;102354.53;;;20.79;63.44
53647;BME280;39550;52.230;5.194;2022-07-12T11:47:44;102358.88;;;20.78;63.33
53647;BME280;39550;52.230;5.194;2022-07-12T11:50:09;102368.50;;;20.78;63.16
53647;BME280;39550;52.230;5.194;2022-07-12T11:52:35;102360.69;;;20.74;63.05
53647;BME280;39550;52.230;5.194;2022-07-12T11:55:07;102363.28;;;20.74;62.97
53647;BME280;39550;52.230;5.194;2022-07-12T11:57:32;102363.28;;;20.74;63.20
53647;BME280;39550;52.230;5.194;2022-07-12T12:00:12;102361.50;;;20.77;63.32
53647;BME280;39550;52.230;5.194;2022-07-12T12:02:37;102355.34;;;20.81;64.08
53647;BME280;39550;52.230;5.194;2022-07-12T12:05:04;102363.22;;;20.84;63.83
53647;BME280;39550;52.230;5.194;2022-07-12T12:07:29;102364.91;;;20.88;63.49
53647;BME280;39550;52.230;5.194;2022-07-12T12:09:58;102359.59;;;20.92;63.42
53647;BME280;39550;52.230;5.194;2022-07-12T12:12:24;102354.31;;;20.97;63.35
53647;BME280;39550;52.230;5.194;2022-07-12T12:14:50;102357.75;;;21.02;63.06
53647;BME280;39550;52.230;5.194;2022-07-12T12:17:15;102348.97;;;21.05;63.12
53647;BME280;39550;52.230;5.194;2022-07-12T12:19:41;102353.34;;;21.03;62.96
53647;BME280;39550;52.230;5.194;2022-07-12T12:22:32;102349.88;;;21.04;63.24
53647;BME280;39550;52.230;5.194;2022-07-12T12:25:00;102345.47;;;21.07;63.48
53647;BME280;39550;52.230;5.194;2022-07-12T12:27:25;102347.22;;;21.05;63.25
53647;BME280;39550;52.230;5.194;2022-07-12T12:29:51;102343.69;;;21.08;63.42
53647;BME280;39550;52.230;5.194;2022-07-12T12:32:18;102340.22;;;21.07;63.67
53647;BME280;39550;52.230;5.194;2022-07-12T12:35:07;102336.69;;;21.08;63.09
53647;BME280;39550;52.230;5.194;2022-07-12T12:37:32;102338.38;;;21.13;63.29
53647;BME280;39550;52.230;5.194;2022-07-12T12:39:57;102337.44;;;21.18;63.56
53647;BME280;39550;52.230;5.194;2022-07-12T12:42:23;102329.53;;;21.23;63.57
53647;BME280;39550;52.230;5.194;2022-07-12T12:44:49;102328.59;;;21.29;63.30
53647;BME280;39550;52.230;5.194;2022-07-12T12:47:15;102336.34;;;21.36;63.07
53647;BME280;39550;52.230;5.194;2022-07-12T12:49:55;102329.28;;;21.41;63.17
53647;BME280;39550;52.230;5.194;2022-07-12T12:52:24;102321.47;;;21.38;62.75
53647;BME280;39550;52.230;5.194;2022-07-12T12:54:50;102325.84;;;21.36;63.30
53647;BME280;39550;52.230;5.194;2022-07-12T12:57:15;102327.47;;;21.47;62.64
53647;BME280;39550;52.230;5.194;2022-07-12T12:59:40;102323.53;;;21.79;61.01
53647;BME280;39550;52.230;5.194;2022-07-12T13:02:07;102311.75;;;22.03;59.78
53647;BME280;39550;52.230;5.194;2022-07-12T13:04:34;102316.16;;;22.02;59.99